sensor_id;sensor_type;location;lat;lon;timestamp;pressure;altitude;pressure_sealevel;temperature;humidity
46506;BME280;32220;49.808;9.968;2023-03-08T00:01:19;97359.22;;;7.02;53.20
46506;BME280;32220;49.808;9.968;2023-03-08T00:03:50;97365.81;;;7.07;52.88
46506;BME280;32220;49.808;9.968;2023-03-08T00:06:18;97384.09;;;7.21;53.28
46506;BME280;32220;49.808;9.968;2023-03-08T00:08:46;97394.97;;;7.17;53.38
46506;BME280;32220;49.808;9.968;2023-03-08T00:11:15;97393.78;;;7.21;52.85
46506;BME280;32220;49.808;9.968;2023-03-08T00:13:44;97401.56;;;7.22;52.67
46506;BME280;32220;49.808;9.968;2023-03-08T00:16:12;97403.06;;;7.14;52.78
46506;BME280;32220;49.808;9.968;2023-03-08T00:18:40;97390.41;;;7.19;52.38
46506;BME280;32220;49.808;9.968;2023-03-08T00:21:10;97375.28;;;7.10;52.64
46506;BME280;32220;49.808;9.968;2023-03-08T00:23:39;97367.28;;;7.11;52.22
46506;BME280;32220;49.808;9.968;2023-03-08T00:26:08;97401.25;;;7.27;52.47
46506;BME280;32220;49.808;9.968;2023-03-08T00:28:36;97395.03;;;7.28;52.21
46506;BME280;32220;49.808;9.968;2023-03-08T00:31:08;97400.28;;;7.28;52.50
46506;BME280;32220;49.808;9.968;2023-03-08T00:33:36;97399.66;;;7.25;52.33
46506;BME280;32220;49.808;9.968;2023-03-08T00:36:07;97405.56;;;7.28;51.77
46506;BME280;32220;49.808;9.968;2023-03-08T00:38:37;97379.72;;;7.09;51.65
46506;BME280;32220;49.808;9.968;2023-03-08T00:41:05;97410.94;;;7.27;51.94
46506;BME280;32220;49.808;9.968;2023-03-08T00:43:33;97409.13;;;7.27;51.73
46506;BME280;32220;49.808;9.968;2023-03-08T00:46:03;97393.38;;;7.14;51.92
46506;BME280;32220;49.808;9.968;2023-03-08T00:48:32;97405.56;;;7.28;51.67
46506;BME280;32220;49.808;9.968;2023-03-08T00:51:00;97412.72;;;7.26;51.62
46506;BME280;32220;49.808;9.968;2023-03-08T00:53:29;97413.47;;;7.28;51.75
46506;BME280;32220;49.808;9.968;2023-03-08T00:55:58;97394.81;;;7.18;51.54
46506;BME280;32220;49.808;9.968;2023-03-08T00:58:29;97407.25;;;7.29;51.21
46506;BME280;32220;49.808;9.968;2023-03-08T01:00:58;97402.41;;;7.23;51.16
46506;BME280;32220;49.808;9.968;2023-03-08T01:03:25;97403.34;;;7.22;51.47
46506;BME280;32220;49.808;9.968;2023-03-08T01:05:57;97410.19;;;7.25;51.11
46506;BME280;32220;49.808;9.968;2023-03-08T01:08:25;97410.09;;;7.26;51.37
46506;BME280;32220;49.808;9.968;2023-03-08T01:10:55;97418.00;;;7.26;51.10
46506;BME280;32220;49.808;9.968;2023-03-08T01:13:24;97409.97;;;7.28;51.25
46506;BME280;32220;49.808;9.968;2023-03-08T01:15:52;97409.88;;;7.29;51.02
46506;BME280;32220;49.808;9.968;2023-03-08T01:18:20;97396.31;;;7.22;50.94
46506;BME280;32220;49.808;9.968;2023-03-08T01:20:56;97394.78;;;7.31;50.83
46506;BME280;32220;49.808;9.968;2023-03-08T01:23:24;97391.03;;;7.22;50.92
46506;BME280;32220;49.808;9.968;2023-03-08T01:25:59;97405.31;;;7.31;51.13
46506;BME280;32220;49.808;9.968;2023-03-08T01:28:27;97380.81;;;7.18;50.70
46506;BME280;32220;49.808;9.968;2023-03-08T01:31:00;97393.94;;;7.31;50.88
46506;BME280;32220;49.808;9.968;2023-03-08T01:33:28;97379.03;;;7.18;50.93
46506;BME280;32220;49.808;9.968;2023-03-08T01:35:57;97393.09;;;7.30;51.20
46506;BME280;32220;49.808;9.968;2023-03-08T01:38:24;97380.59;;;7.21;50.85
46506;BME280;32220;49.808;9.968;2023-03-08T01:40:55;97370.75;;;7.12;50.77
46506;BME280;32220;49.808;9.968;2023-03-08T01:43:25;97385.97;;;7.19;50.73
46506;BME280;32220;49.808;9.968;2023-03-08T01:46:18;97370.19;;;7.19;50.71
46506;BME280;32220;49.808;9.968;2023-03-08T01:48:52;97310.75;;;6.80;50.87
46506;BME280;32220;49.808;9.968;2023-03-08T01:51:29;97371.50;;;7.14;51.16
46506;BME280;32220;49.808;9.968;2023-03-08T01:53:59;97368.84;;;7.14;50.97
46506;BME280;32220;49.808;9.968;2023-03-08T01:56:28;97316.84;;;6.81;51.23
46506;BME280;32220;49.808;9.968;2023-03-08T01:58:56;97377.03;;;7.22;51.04
46506;BME280;32220;49.808;9.968;2023-03-08T02:01:26;97379.66;;;7.22;50.80
46506;BME280;32220;49.808;9.968;2023-03-08T02:03:56;97360.13;;;7.13;50.96
46506;BME280;32220;49.808;9.968;2023-03-08T02:06:27;97377.75;;;7.24;51.02
46506;BME280;32220;49.808;9.968;2023-03-08T02:08:55;97371.88;;;7.20;51.09
46506;BME280;32220;49.808;9.968;2023-03-08T02:11:24;97356.13;;;7.08;51.18
46506;BME280;32220;49.808;9.968;2023-03-08T02:13:55;97362.44;;;7.05;51.01
46506;BME280;32220;49.808;9.968;2023-03-08T02:16:23;97364.69;;;6.99;51.40
46506;BME280;32220;49.808;9.968;2023-03-08T02:18:53;97361.03;;;6.89;51.24
46506;BME280;32220;49.808;9.968;2023-03-08T02:21:22;97347.25;;;6.85;51.39
46506;BME280;32220;49.808;9.968;2023-03-08T02:23:53;97360.94;;;6.90;51.48
46506;BME280;32220;49.808;9.968;2023-03-08T02:26:22;97359.25;;;6.89;51.31
46506;BME280;32220;49.808;9.968;2023-03-08T02:28:50;97367.16;;;6.89;51.62
46506;BME280;32220;49.808;9.968;2023-03-08T02:31:20;97350.09;;;6.82;51.29
46506;BME280;32220;49.808;9.968;2023-03-08T02:33:48;97361.78;;;6.91;51.48
46506;BME280;32220;49.808;9.968;2023-03-08T02:36:16;97353.25;;;6.87;51.70
46506;BME280;32220;49.808;9.968;2023-03-08T02:38:44;97367.31;;;6.99;51.40
46506;BME280;32220;49.808;9.968;2023-03-08T02:41:13;97358.91;;;6.94;51.10
46506;BME280;32220;49.808;9.968;2023-03-08T02:43:42;97361.53;;;6.94;51.13
46506;BME280;32220;49.808;9.968;2023-03-08T02:46:11;97349.13;;;6.96;51.51
46506;BME280;32220;49.808;9.968;2023-03-08T02:48:38;97352.38;;;6.99;51.01
46506;BME280;32220;49.808;9.968;2023-03-08T02:51:06;97346.06;;;7.02;51.03
46506;BME280;32220;49.808;9.968;2023-03-08T02:53:34;97333.53;;;6.93;51.06
46506;BME280;32220;49.808;9.968;2023-03-08T02:56:03;97328.28;;;6.93;50.79
46506;BME280;32220;49.808;9.968;2023-03-08T02:58:33;97341.84;;;6.99;51.02
46506;BME280;32220;49.808;9.968;2023-03-08T03:01:02;97345.81;;;7.05;50.85
46506;BME280;32220;49.808;9.968;2023-03-08T03:03:30;97339.72;;;7.04;50.79
46506;BME280;32220;49.808;9.968;2023-03-08T03:05:58;97335.28;;;7.05;50.72
46506;BME280;32220;49.808;9.968;2023-03-08T03:08:30;97342.47;;;7.03;50.91
46506;BME280;32220;49.808;9.968;2023-03-08T03:10:58;97341.63;;;7.02;50.61
46506;BME280;32220;49.808;9.968;2023-03-08T03:13:26;97346.78;;;7.04;50.61
46506;BME280;32220;49.808;9.968;2023-03-08T03:15:55;97342.38;;;7.04;50.77
46506;BME280;32220;49.808;9.968;2023-03-08T03:18:23;97336.25;;;7.04;50.97
46506;BME280;32220;49.808;9.968;2023-03-08T03:20:51;97335.28;;;7.05;50.80
46506;BME280;32220;49.808;9.968;2023-03-08T03:23:19;97331.44;;;6.98;50.83
46506;BME280;32220;49.808;9.968;2023-03-08T03:25:52;97317.88;;;6.91;50.57
46506;BME280;32220;49.808;9.968;2023-03-08T03:28:20;97331.75;;;6.93;50.98
46506;BME280;32220;49.808;9.968;2023-03-08T03:30:49;97335.75;;;6.99;50.46
46506;BME280;32220;49.808;9.968;2023-03-08T03:33:18;97331.22;;;7.01;51.00
46506;BME280;32220;49.808;9.968;2023-03-08T03:35:47;97325.22;;;6.99;50.71
46506;BME280;32220;49.808;9.968;2023-03-08T03:38:15;97318.72;;;6.92;50.78
46506;BME280;32220;49.808;9.968;2023-03-08T03:40:44;97330.81;;;6.94;50.83
46506;BME280;32220;49.808;9.968;2023-03-08T03:43:12;97329.25;;;6.92;50.82
46506;BME280;32220;49.808;9.968;2023-03-08T03:45:40;97321.91;;;6.84;50.81
46506;BME280;32220;49.808;9.968;2023-03-08T03:48:08;97329.69;;;6.85;51.07
46506;BME280;32220;49.808;9.968;2023-03-08T03:50:38;97314.56;;;6.76;51.13
46506;BME280;32220;49.808;9.968;2023-03-08T03:53:11;97322.72;;;6.84;50.61
46506;BME280;32220;49.808;9.968;2023-03-08T03:55:39;97330.72;;;6.83;51.12
46506;BME280;32220;49.808;9.968;2023-03-08T03:58:07;97335.16;;;6.82;50.95
46506;BME280;32220;49.808;9.968;2023-03-08T04:00:35;97330.56;;;6.73;50.96
46506;BME280;32220;49.808;9.968;2023-03-08T04:03:21;97322.78;;;6.72;50.93
46506;BME280;32220;49.808;9.968;2023-03-08T04:05:52;97334.88;;;6.74;50.96
46506;BME280;32220;49.808;9.968;2023-03-08T04:08:21;97335.94;;;6.72;50.84
46506;BME280;32220;49.808;9.968;2023-03-08T04:10:49;97325.75;;;6.67;51.07
46506;BME280;32220;49.808;9.968;2023-03-08T04:13:17;97313.34;;;6.57;50.78
46506;BME280;32220;49.808;9.968;2023-03-08T04:15:45;97324.56;;;6.71;50.83
46506;BME280;32220;49.808;9.968;2023-03-08T04:18:13;97321.94;;;6.71;50.66
46506;BME280;32220;49.808;9.968;2023-03-08T04:20:44;97300.09;;;6.58;50.96
46506;BME280;32220;49.808;9.968;2023-03-08T04:23:13;97313.66;;;6.65;50.68
46506;BME280;32220;49.808;9.968;2023-03-08T04:25:45;97305.97;;;6.62;50.75
46506;BME280;32220;49.808;9.968;2023-03-08T04:28:14;97297.25;;;6.61;50.86
46506;BME280;32220;49.808;9.968;2023-03-08T04:30:42;97291.34;;;6.58;50.91
46506;BME280;32220;49.808;9.968;2023-03-08T04:33:11;97298.41;;;6.57;50.63
46506;BME280;32220;49.808;9.968;2023-03-08T04:35:45;97298.63;;;6.54;50.69
46506;BME280;32220;49.808;9.968;2023-03-08T04:38:16;97301.47;;;6.51;50.57
46506;BME280;32220;49.808;9.968;2023-03-08T04:40:48;97295.19;;;6.41;50.97
46506;BME280;32220;49.808;9.968;2023-03-08T04:43:57;97297.00;;;6.28;50.90
46506;BME280;32220;49.808;9.968;2023-03-08T04:46:47;97277.34;;;6.08;51.40
46506;BME280;32220;49.808;9.968;2023-03-08T04:49:22;97279.13;;;6.07;51.30
46506;BME280;32220;49.808;9.968;2023-03-08T04:51:54;97258.25;;;5.93;51.71
46506;BME280;32220;49.808;9.968;2023-03-08T04:54:24;97266.16;;;5.93;51.60
46506;BME280;32220;49.808;9.968;2023-03-08T04:56:59;97267.59;;;5.97;52.00
46506;BME280;32220;49.808;9.968;2023-03-08T04:59:27;97258.13;;;5.95;52.10
46506;BME280;32220;49.808;9.968;2023-03-08T05:01:57;97265.16;;;5.94;51.74
46506;BME280;32220;49.808;9.968;2023-03-08T05:04:26;97267.78;;;5.94;51.70
46506;BME280;32220;49.808;9.968;2023-03-08T05:06:54;97267.78;;;5.94;52.02
46506;BME280;32220;49.808;9.968;2023-03-08T05:09:26;97269.72;;;5.92;51.64
46506;BME280;32220;49.808;9.968;2023-03-08T05:11:54;97253.38;;;5.87;51.63
46506;BME280;32220;49.808;9.968;2023-03-08T05:14:25;97255.09;;;5.88;51.62
46506;BME280;32220;49.808;9.968;2023-03-08T05:16:54;97260.91;;;5.93;51.51
46506;BME280;32220;49.808;9.968;2023-03-08T05:19:22;97265.69;;;5.99;51.67
46506;BME280;32220;49.808;9.968;2023-03-08T05:21:51;97262.13;;;6.00;51.68
46506;BME280;32220;49.808;9.968;2023-03-08T05:24:20;97246.28;;;5.89;51.58
46506;BME280;32220;49.808;9.968;2023-03-08T05:26:49;97244.38;;;5.91;51.44
46506;BME280;32220;49.808;9.968;2023-03-08T05:29:18;97255.81;;;6.03;51.65
46506;BME280;32220;49.808;9.968;2023-03-08T05:31:48;97238.41;;;5.89;51.59
46506;BME280;32220;49.808;9.968;2023-03-08T05:34:17;97260.25;;;6.02;51.63
46506;BME280;32220;49.808;9.968;2023-03-08T05:36:46;97237.63;;;5.87;51.53
46506;BME280;32220;49.808;9.968;2023-03-08T05:39:14;97254.78;;;6.05;51.56
46506;BME280;32220;49.808;9.968;2023-03-08T05:41:54;97259.19;;;6.05;51.56
46506;BME280;32220;49.808;9.968;2023-03-08T05:44:28;97252.38;;;6.02;51.85
46506;BME280;32220;49.808;9.968;2023-03-08T05:46:58;97258.66;;;6.00;51.55
46506;BME280;32220;49.808;9.968;2023-03-08T05:49:26;97260.44;;;5.99;51.41
46506;BME280;32220;49.808;9.968;2023-03-08T05:51:54;97260.44;;;5.99;51.45
46506;BME280;32220;49.808;9.968;2023-03-08T05:54:24;97233.41;;;5.85;51.30
46506;BME280;32220;49.808;9.968;2023-03-08T05:56:57;97243.66;;;5.89;51.65
46506;BME280;32220;49.808;9.968;2023-03-08T05:59:25;97258.56;;;6.01;51.48
46506;BME280;32220;49.808;9.968;2023-03-08T06:01:56;97260.44;;;5.99;51.25
46506;BME280;32220;49.808;9.968;2023-03-08T06:04:35;97253.00;;;5.93;51.22
46506;BME280;32220;49.808;9.968;2023-03-08T06:07:04;97266.09;;;6.06;51.14
46506;BME280;32220;49.808;9.968;2023-03-08T06:09:36;97265.06;;;6.08;51.25
46506;BME280;32220;49.808;9.968;2023-03-08T06:12:07;97271.78;;;6.12;51.08
46506;BME280;32220;49.808;9.968;2023-03-08T06:14:35;97280.19;;;6.18;50.96
46506;BME280;32220;49.808;9.968;2023-03-08T06:17:03;97253.09;;;6.04;51.08
46506;BME280;32220;49.808;9.968;2023-03-08T06:19:34;97273.88;;;6.20;50.85
46506;BME280;32220;49.808;9.968;2023-03-08T06:22:01;97261.34;;;6.24;51.20
46506;BME280;32220;49.808;9.968;2023-03-08T06:24:30;97241.94;;;6.13;51.19
46506;BME280;32220;49.808;9.968;2023-03-08T06:27:00;97262.84;;;6.28;51.54
46506;BME280;32220;49.808;9.968;2023-03-08T06:29:29;97257.78;;;6.25;51.72
46506;BME280;32220;49.808;9.968;2023-03-08T06:31:57;97265.97;;;6.20;51.96
46506;BME280;32220;49.808;9.968;2023-03-08T06:34:25;97233.75;;;6.05;53.31
46506;BME280;32220;49.808;9.968;2023-03-08T06:36:55;97247.41;;;5.98;54.00
46506;BME280;32220;49.808;9.968;2023-03-08T06:39:25;97238.78;;;5.96;55.22
46506;BME280;32220;49.808;9.968;2023-03-08T06:41:56;97238.78;;;5.96;55.29
46506;BME280;32220;49.808;9.968;2023-03-08T06:44:26;97224.31;;;5.90;55.54
46506;BME280;32220;49.808;9.968;2023-03-08T06:46:56;97227.31;;;5.84;56.59
46506;BME280;32220;49.808;9.968;2023-03-08T06:49:24;97234.38;;;5.96;56.05
46506;BME280;32220;49.808;9.968;2023-03-08T06:51:52;97231.44;;;6.01;56.58
46506;BME280;32220;49.808;9.968;2023-03-08T06:54:20;97218.41;;;5.99;57.24
46506;BME280;32220;49.808;9.968;2023-03-08T06:56:49;97219.34;;;5.98;57.21
46506;BME280;32220;49.808;9.968;2023-03-08T06:59:17;97221.78;;;6.01;57.45
46506;BME280;32220;49.808;9.968;2023-03-08T07:01:45;97209.78;;;5.97;57.23
46506;BME280;32220;49.808;9.968;2023-03-08T07:04:14;97212.94;;;6.02;57.50
46506;BME280;32220;49.808;9.968;2023-03-08T07:06:43;97215.69;;;6.01;57.43
46506;BME280;32220;49.808;9.968;2023-03-08T07:09:10;97213.72;;;5.92;58.59
46506;BME280;32220;49.808;9.968;2023-03-08T07:11:39;97205.81;;;5.79;58.73
46506;BME280;32220;49.808;9.968;2023-03-08T07:14:07;97197.31;;;5.63;59.10
46506;BME280;32220;49.808;9.968;2023-03-08T07:16:35;97208.09;;;5.71;59.62
46506;BME280;32220;49.808;9.968;2023-03-08T07:19:02;97205.47;;;5.71;59.80
46506;BME280;32220;49.808;9.968;2023-03-08T07:21:32;97199.28;;;5.72;59.92
46506;BME280;32220;49.808;9.968;2023-03-08T07:24:00;97188.38;;;5.65;60.06
46506;BME280;32220;49.808;9.968;2023-03-08T07:26:27;97196.16;;;5.67;60.03
46506;BME280;32220;49.808;9.968;2023-03-08T07:28:55;97202.44;;;5.77;60.18
46506;BME280;32220;49.808;9.968;2023-03-08T07:31:23;97195.91;;;5.83;60.38
46506;BME280;32220;49.808;9.968;2023-03-08T07:33:51;97179.75;;;5.76;60.42
46506;BME280;32220;49.808;9.968;2023-03-08T07:36:19;97189.59;;;5.85;60.03
46506;BME280;32220;49.808;9.968;2023-03-08T07:38:49;97189.44;;;5.88;60.03
46506;BME280;32220;49.808;9.968;2023-03-08T07:41:16;97198.88;;;6.03;60.63
46506;BME280;32220;49.808;9.968;2023-03-08T07:43:44;97167.13;;;5.94;60.84
46506;BME280;32220;49.808;9.968;2023-03-08T07:46:16;97158.94;;;5.86;60.89
46506;BME280;32220;49.808;9.968;2023-03-08T07:48:44;97151.69;;;5.76;61.80
46506;BME280;32220;49.808;9.968;2023-03-08T07:51:12;97167.34;;;5.78;61.86
46506;BME280;32220;49.808;9.968;2023-03-08T07:53:39;97172.59;;;5.78;62.33
46506;BME280;32220;49.808;9.968;2023-03-08T07:56:09;97150.97;;;5.74;62.24
46506;BME280;32220;49.808;9.968;2023-03-08T07:58:37;97146.56;;;5.75;62.86
46506;BME280;32220;49.808;9.968;2023-03-08T08:01:07;97102.91;;;5.49;63.55
46506;BME280;32220;49.808;9.968;2023-03-08T08:03:35;97099.66;;;5.45;63.92
46506;BME280;32220;49.808;9.968;2023-03-08T08:06:05;97131.66;;;5.63;64.43
46506;BME280;32220;49.808;9.968;2023-03-08T08:08:32;97098.69;;;5.46;64.81
46506;BME280;32220;49.808;9.968;2023-03-08T08:11:01;97128.28;;;5.61;64.96
46506;BME280;32220;49.808;9.968;2023-03-08T08:13:37;97120.41;;;5.61;65.89
46506;BME280;32220;49.808;9.968;2023-03-08T08:16:05;97049.00;;;5.19;66.95
46506;BME280;32220;49.808;9.968;2023-03-08T08:18:34;97085.91;;;5.41;66.62
46506;BME280;32220;49.808;9.968;2023-03-08T08:21:03;97087.16;;;5.49;66.38
46506;BME280;32220;49.808;9.968;2023-03-08T08:23:33;97095.75;;;5.51;67.41
46506;BME280;32220;49.808;9.968;2023-03-08T08:26:04;97088.84;;;5.50;67.30
46506;BME280;32220;49.808;9.968;2023-03-08T08:28:33;97089.03;;;5.47;67.38
46506;BME280;32220;49.808;9.968;2023-03-08T08:31:05;97066.63;;;5.30;69.14
46506;BME280;32220;49.808;9.968;2023-03-08T08:33:33;97071.88;;;5.30;69.77
46506;BME280;32220;49.808;9.968;2023-03-08T08:36:03;97053.41;;;5.31;69.93
46506;BME280;32220;49.808;9.968;2023-03-08T08:38:32;97052.03;;;5.26;70.47
46506;BME280;32220;49.808;9.968;2023-03-08T08:41:00;97054.34;;;5.18;70.69
46506;BME280;32220;49.808;9.968;2023-03-08T08:43:28;97040.81;;;5.11;70.92
46506;BME280;32220;49.808;9.968;2023-03-08T08:45:58;97026.56;;;5.02;71.41
46506;BME280;32220;49.808;9.968;2023-03-08T08:48:28;97022.25;;;5.01;72.44
46506;BME280;32220;49.808;9.968;2023-03-08T08:50:58;97022.16;;;5.03;72.89
46506;BME280;32220;49.808;9.968;2023-03-08T08:53:26;97015.63;;;4.96;72.68
46506;BME280;32220;49.808;9.968;2023-03-08T08:55:54;97023.63;;;4.94;72.37
46506;BME280;32220;49.808;9.968;2023-03-08T08:58:22;97013.66;;;4.87;73.09
46506;BME280;32220;49.808;9.968;2023-03-08T09:00:50;97019.22;;;4.82;72.62
46506;BME280;32220;49.808;9.968;2023-03-08T09:03:18;97015.03;;;4.80;72.96
46506;BME280;32220;49.808;9.968;2023-03-08T09:05:47;97002.44;;;4.85;73.42
46506;BME280;32220;49.808;9.968;2023-03-08T09:08:15;96987.13;;;4.79;72.87
46506;BME280;32220;49.808;9.968;2023-03-08T09:10:43;96969.38;;;4.82;73.37
46506;BME280;32220;49.808;9.968;2023-03-08T09:13:11;96976.44;;;4.94;73.48
46506;BME280;32220;49.808;9.968;2023-03-08T09:15:39;96987.53;;;4.98;73.53
46506;BME280;32220;49.808;9.968;2023-03-08T09:18:06;96967.41;;;4.86;74.78
46506;BME280;32220;49.808;9.968;2023-03-08T09:20:34;96968.22;;;4.86;75.06
46506;BME280;32220;49.808;9.968;2023-03-08T09:23:04;96964.78;;;4.86;74.86
46506;BME280;32220;49.808;9.968;2023-03-08T09:25:33;96952.50;;;4.86;75.53
46506;BME280;32220;49.808;9.968;2023-03-08T09:28:01;96946.41;;;4.86;75.45
46506;BME280;32220;49.808;9.968;2023-03-08T09:30:28;96939.94;;;4.79;75.61
46506;BME280;32220;49.808;9.968;2023-03-08T09:32:58;96923.69;;;4.61;76.44
46506;BME280;32220;49.808;9.968;2023-03-08T09:35:25;96925.06;;;4.66;76.72
46506;BME280;32220;49.808;9.968;2023-03-08T09:37:53;96924.84;;;4.69;76.37
46506;BME280;32220;49.808;9.968;2023-03-08T09:40:24;96906.91;;;4.63;75.79
46506;BME280;32220;49.808;9.968;2023-03-08T09:42:57;96874.34;;;4.42;75.72
46506;BME280;32220;49.808;9.968;2023-03-08T09:45:30;96934.50;;;4.69;75.73
46506;BME280;32220;49.808;9.968;2023-03-08T09:48:04;96927.88;;;4.63;75.74
46506;BME280;32220;49.808;9.968;2023-03-08T09:50:43;96927.59;;;4.55;76.69
46506;BME280;32220;49.808;9.968;2023-03-08T09:53:20;96922.97;;;4.46;77.15
46506;BME280;32220;49.808;9.968;2023-03-08T09:55:54;96914.16;;;4.34;78.09
46506;BME280;32220;49.808;9.968;2023-03-08T09:58:31;96913.31;;;4.34;78.76
46506;BME280;32220;49.808;9.968;2023-03-08T10:01:09;96915.53;;;4.40;78.49
46506;BME280;32220;49.808;9.968;2023-03-08T10:03:52;96910.59;;;4.48;78.56
46506;BME280;32220;49.808;9.968;2023-03-08T10:06:30;96910.47;;;4.62;77.49
46506;BME280;32220;49.808;9.968;2023-03-08T10:09:02;96896.13;;;4.68;77.75
46506;BME280;32220;49.808;9.968;2023-03-08T10:11:37;96925.22;;;4.89;77.24
46506;BME280;32220;49.808;9.968;2023-03-08T10:14:25;96906.97;;;4.87;77.25
46506;BME280;32220;49.808;9.968;2023-03-08T10:16:57;96907.56;;;5.03;77.08
46506;BME280;32220;49.808;9.968;2023-03-08T10:19:30;96898.94;;;5.14;77.25
46506;BME280;32220;49.808;9.968;2023-03-08T10:22:05;96892.00;;;5.13;77.40
46506;BME280;32220;49.808;9.968;2023-03-08T10:24:40;96887.28;;;5.18;77.50
46506;BME280;32220;49.808;9.968;2023-03-08T10:27:15;96877.28;;;5.23;77.21
46506;BME280;32220;49.808;9.968;2023-03-08T10:29:50;96825.84;;;4.97;77.10
46506;BME280;32220;49.808;9.968;2023-03-08T10:32:18;96883.31;;;5.36;76.63
46506;BME280;32220;49.808;9.968;2023-03-08T10:34:47;96874.47;;;5.37;76.51
46506;BME280;32220;49.808;9.968;2023-03-08T10:37:15;96858.84;;;5.36;76.05
46506;BME280;32220;49.808;9.968;2023-03-08T10:39:48;96868.53;;;5.47;76.25
46506;BME280;32220;49.808;9.968;2023-03-08T10:42:22;96863.28;;;5.47;76.48
46506;BME280;32220;49.808;9.968;2023-03-08T10:44:56;96853.63;;;5.47;76.42
46506;BME280;32220;49.808;9.968;2023-03-08T10:47:27;96847.94;;;5.53;76.59
46506;BME280;32220;49.808;9.968;2023-03-08T10:50:11;96853.47;;;5.61;76.28
46506;BME280;32220;49.808;9.968;2023-03-08T10:52:39;96846.06;;;5.55;76.33
46506;BME280;32220;49.808;9.968;2023-03-08T10:55:11;96843.78;;;5.62;76.28
46506;BME280;32220;49.808;9.968;2023-03-08T10:57:42;96847.72;;;5.56;76.57
46506;BME280;32220;49.808;9.968;2023-03-08T11:00:27;96835.38;;;5.46;77.23
46506;BME280;32220;49.808;9.968;2023-03-08T11:03:18;96834.16;;;5.38;77.58
46506;BME280;32220;49.808;9.968;2023-03-08T11:05:54;96824.09;;;5.32;77.62
46506;BME280;32220;49.808;9.968;2023-03-08T11:08:24;96827.47;;;5.34;78.07
46506;BME280;32220;49.808;9.968;2023-03-08T11:11:01;96824.34;;;5.29;78.18
46506;BME280;32220;49.808;9.968;2023-03-08T11:13:33;96826.03;;;5.30;78.78
46506;BME280;32220;49.808;9.968;2023-03-08T11:16:12;96825.09;;;5.31;78.68
46506;BME280;32220;49.808;9.968;2023-03-08T11:18:50;96816.97;;;5.34;78.73
46506;BME280;32220;49.808;9.968;2023-03-08T11:21:28;96820.94;;;5.40;78.75
46506;BME280;32220;49.808;9.968;2023-03-08T11:24:08;96764.41;;;5.12;78.91
46506;BME280;32220;49.808;9.968;2023-03-08T11:26:50;96810.34;;;5.53;79.08
46506;BME280;32220;49.808;9.968;2023-03-08T11:29:30;96808.22;;;5.58;79.13
46506;BME280;32220;49.808;9.968;2023-03-08T11:32:10;96800.84;;;5.63;78.99
46506;BME280;32220;49.808;9.968;2023-03-08T11:34:56;96795.59;;;5.63;78.92
46506;BME280;32220;49.808;9.968;2023-03-08T11:37:31;96784.84;;;5.66;79.54
46506;BME280;32220;49.808;9.968;2023-03-08T11:40:16;96766.22;;;5.69;79.76
46506;BME280;32220;49.808;9.968;2023-03-08T11:42:55;96760.63;;;5.73;80.38
46506;BME280;32220;49.808;9.968;2023-03-08T11:45:31;96755.88;;;5.78;80.64
46506;BME280;32220;49.808;9.968;2023-03-08T11:48:29;96746.91;;;5.81;79.94
46506;BME280;32220;49.808;9.968;2023-03-08T11:51:03;96732.47;;;5.75;80.45
46506;BME280;32220;49.808;9.968;2023-03-08T11:53:42;96724.47;;;5.77;80.88
46506;BME280;32220;49.808;9.968;2023-03-08T11:59:30;96718.19;;;5.91;80.39
46506;BME280;32220;49.808;9.968;2023-03-08T12:02:10;96706.72;;;5.92;81.10
46506;BME280;32220;49.808;9.968;2023-03-08T12:04:48;96703.59;;;5.87;81.35
46506;BME280;32220;49.808;9.968;2023-03-08T12:07:23;96708.75;;;5.88;81.14
46506;BME280;32220;49.808;9.968;2023-03-08T12:09:57;96702.06;;;5.95;80.72
46506;BME280;32220;49.808;9.968;2023-03-08T12:12:29;96691.91;;;5.91;80.48
46506;BME280;32220;49.808;9.968;2023-03-08T12:15:01;96694.66;;;6.00;80.30
46506;BME280;32220;49.808;9.968;2023-03-08T12:17:39;96699.06;;;6.00;80.45
46506;BME280;32220;49.808;9.968;2023-03-08T12:20:12;96707.19;;;6.08;80.88
46506;BME280;32220;49.808;9.968;2023-03-08T12:22:44;96704.66;;;6.06;81.05
46506;BME280;32220;49.808;9.968;2023-03-08T12:25:21;96704.66;;;6.06;80.71
46506;BME280;32220;49.808;9.968;2023-03-08T12:27:55;96703.03;;;6.05;80.59
46506;BME280;32220;49.808;9.968;2023-03-08T12:30:34;96698.47;;;6.07;80.58
46506;BME280;32220;49.808;9.968;2023-03-08T12:33:05;96690.47;;;6.09;80.63
46506;BME280;32220;49.808;9.968;2023-03-08T12:35:37;96690.94;;;6.14;80.52
46506;BME280;32220;49.808;9.968;2023-03-08T12:38:30;96668.25;;;6.13;80.93
46506;BME280;32220;49.808;9.968;2023-03-08T12:40:58;96672.03;;;6.31;81.29
46506;BME280;32220;49.808;9.968;2023-03-08T12:43:29;96682.88;;;6.38;81.54
46506;BME280;32220;49.808;9.968;2023-03-08T12:46:04;96670.19;;;6.43;81.66
46506;BME280;32220;49.808;9.968;2023-03-08T12:48:37;96663.75;;;6.47;81.66
46506;BME280;32220;49.808;9.968;2023-03-08T12:51:18;96665.63;;;6.56;82.00
46506;BME280;32220;49.808;9.968;2023-03-08T12:53:55;96655.31;;;6.64;81.65
46506;BME280;32220;49.808;9.968;2023-03-08T12:56:29;96658.41;;;6.69;81.73
46506;BME280;32220;49.808;9.968;2023-03-08T12:58:59;96652.31;;;6.69;82.09
46506;BME280;32220;49.808;9.968;2023-03-08T13:01:36;96657.56;;;6.69;82.56
46506;BME280;32220;49.808;9.968;2023-03-08T13:04:24;96648.28;;;6.65;82.51
46506;BME280;32220;49.808;9.968;2023-03-08T13:07:07;96653.09;;;6.80;82.01
46506;BME280;32220;49.808;9.968;2023-03-08T13:09:43;96649.25;;;6.84;81.86
46506;BME280;32220;49.808;9.968;2023-03-08T13:12:33;96649.25;;;6.84;82.74
46506;BME280;32220;49.808;9.968;2023-03-08T13:15:19;96645.91;;;6.82;82.82
46506;BME280;32220;49.808;9.968;2023-03-08T13:17:51;96639.25;;;6.78;82.97
46506;BME280;32220;49.808;9.968;2023-03-08T13:20:23;96644.72;;;6.87;82.54
46506;BME280;32220;49.808;9.968;2023-03-08T13:23:00;96631.75;;;6.95;82.67
46506;BME280;32220;49.808;9.968;2023-03-08T13:25:46;96638.19;;;7.02;83.00
46506;BME280;32220;49.808;9.968;2023-03-08T13:28:19;96639.25;;;6.99;83.56
46506;BME280;32220;49.808;9.968;2023-03-08T13:30:49;96638.31;;;7.00;83.57
46506;BME280;32220;49.808;9.968;2023-03-08T13:33:20;96629.63;;;7.09;83.72
46506;BME280;32220;49.808;9.968;2023-03-08T13:35:59;96630.25;;;7.22;83.51